Time,TemperatureF,DewpointF,PressureIn,WindDirection,WindDirectionDegrees,WindSpeedMPH,WindSpeedGustMPH,Humidity,HourlyPrecipIn,Conditions,Clouds,dailyrainin,SoftwareType,DateUTC
2013-04-19 00:01:00,67.0,61.7,30.05,SE,138,4.0,10.0,83,0.00,,---,0.00,VWS V14.01,2013-04-19 04:01:00,
2013-04-19 00:03:00,66.9,61.9,30.05,SSE,163,3.0,10.0,84,0.00,,---,0.00,VWS V14.01,2013-04-19 04:03:00,
2013-04-19 00:04:00,66.8,61.8,30.05,SSE,159,4.0,10.0,84,0.00,,---,0.00,VWS V14.01,2013-04-19 04:04:00,
2013-04-19 00:05:00,66.8,61.8,30.05,SSE,163,3.0,10.0,84,0.00,,---,0.00,VWS V14.01,2013-04-19 04:05:00,
2013-04-19 00:11:00,66.5,61.5,30.04,SSE,163,4.0,10.0,84,0.00,,---,0.00,VWS V14.01,2013-04-19 04:11:00,
2013-04-19 00:16:00,66.4,61.8,30.04,SSE,162,6.0,10.0,85,0.00,,---,0.00,VWS V14.01,2013-04-19 04:16:00,
2013-04-19 00:21:00,66.2,61.6,30.04,SE,143,6.0,9.0,85,0.00,,---,0.00,VWS V14.01,2013-04-19 04:21:00,
2013-04-19 00:26:00,66.1,61.8,30.04,South,176,4.0,9.0,86,0.00,,---,0.00,VWS V14.01,2013-04-19 04:26:00,
2013-04-19 00:31:00,66.0,61.7,30.04,East,98,3.0,5.0,86,0.00,,---,0.00,VWS V14.01,2013-04-19 04:31:00,
2013-04-19 00:36:00,65.9,61.6,30.04,South,174,4.0,10.0,86,0.00,,---,0.00,VWS V14.01,2013-04-19 04:36:00,
2013-04-19 00:41:00,65.9,61.9,30.04,South,170,6.0,13.0,87,0.00,,---,0.00,VWS V14.01,2013-04-19 04:41:00,
2013-04-19 00:46:00,65.9,61.9,30.04,SE,138,3.0,9.0,87,0.00,,---,0.00,VWS V14.01,2013-04-19 04:46:00,
2013-04-19 00:51:00,65.8,61.8,30.04,South,172,4.0,11.0,87,0.00,,---,0.00,VWS V14.01,2013-04-19 04:51:00,
2013-04-19 00:56:00,65.7,62.0,30.03,SSE,152,1.0,11.0,88,0.00,,---,0.00,VWS V14.01,2013-04-19 04:56:00,
2013-04-19 01:01:00,65.5,61.9,30.03,SSE,161,5.0,6.0,88,0.00,,---,0.00,VWS V14.01,2013-04-19 05:01:00,
2013-04-19 01:06:00,65.4,62.1,30.03,SSE,153,1.0,9.0,89,0.00,,---,0.00,VWS V14.01,2013-04-19 05:06:00,
2013-04-19 01:11:00,65.3,62.0,30.03,SSE,167,0.0,9.0,89,0.00,,---,0.00,VWS V14.01,2013-04-19 05:11:00,
2013-04-19 01:16:00,65.2,61.9,30.02,SE,131,2.0,5.0,89,0.00,,---,0.00,VWS V14.01,2013-04-19 05:16:00,
2013-04-19 01:21:00,65.2,61.9,30.02,ESE,115,3.0,9.0,89,0.00,,---,0.00,VWS V14.01,2013-04-19 05:21:00,
2013-04-19 01:26:00,65.2,62.2,30.02,SSE,158,7.0,9.0,90,0.00,,---,0.00,VWS V14.01,2013-04-19 05:26:00,
2013-04-19 01:32:00,65.2,62.2,30.02,SSE,161,4.0,5.0,90,0.00,,---,0.00,VWS V14.01,2013-04-19 05:32:00,
2013-04-19 01:37:00,65.2,62.2,30.01,ESE,122,2.0,5.0,90,0.00,,---,0.00,VWS V14.01,2013-04-19 05:37:00,
2013-04-19 01:42:00,65.2,62.2,30.01,SSE,161,3.0,9.0,90,0.00,,---,0.00,VWS V14.01,2013-04-19 05:42:00,
2013-04-19 01:47:00,65.3,62.3,30.01,South,169,2.0,7.0,90,0.00,,---,0.00,VWS V14.01,2013-04-19 05:47:00,
2013-04-19 01:52:00,65.5,62.8,30.01,South,176,8.0,8.0,91,0.00,,---,0.00,VWS V14.01,2013-04-19 05:52:00,
2013-04-19 01:57:00,65.7,63.0,30.01,South,187,4.0,10.0,91,0.00,,---,0.00,VWS V14.01,2013-04-19 05:57:00,
2013-04-19 02:02:00,65.8,63.1,30.01,South,175,2.0,13.0,91,0.00,,---,0.00,VWS V14.01,2013-04-19 06:02:00,
2013-04-19 02:07:00,65.8,63.1,30.00,SSE,161,8.0,13.0,91,0.00,,---,0.00,VWS V14.01,2013-04-19 06:07:00,
2013-04-19 02:12:00,65.8,63.1,30.00,South,172,2.0,13.0,91,0.00,,---,0.00,VWS V14.01,2013-04-19 06:12:00,
2013-04-19 02:17:00,65.9,63.2,30.00,SSE,147,8.0,10.0,91,0.00,,---,0.00,VWS V14.01,2013-04-19 06:17:00,
2013-04-19 02:22:00,65.9,63.2,29.99,SSE,165,2.0,10.0,91,0.00,,---,0.00,VWS V14.01,2013-04-19 06:22:00,
2013-04-19 02:27:00,65.9,63.2,29.99,South,182,6.0,11.0,91,0.00,,---,0.00,VWS V14.01,2013-04-19 06:27:00,
2013-04-19 02:33:00,65.9,63.2,29.99,SSE,167,9.0,12.0,91,0.00,,---,0.00,VWS V14.01,2013-04-19 06:33:00,
2013-04-19 02:38:00,65.9,63.2,29.99,SSE,159,5.0,12.0,91,0.00,,---,0.00,VWS V14.01,2013-04-19 06:38:00,
2013-04-19 02:43:00,65.9,63.2,29.99,SSE,166,6.0,12.0,91,0.00,,---,0.00,VWS V14.01,2013-04-19 06:43:00,
2013-04-19 02:48:00,66.0,63.3,29.98,SSW,194,7.0,9.0,91,0.00,,---,0.00,VWS V14.01,2013-04-19 06:48:00,
2013-04-19 02:53:00,66.0,63.3,29.98,SSW,196,7.0,10.0,91,0.00,,---,0.00,VWS V14.01,2013-04-19 06:53:00,
2013-04-19 02:58:00,66.1,63.4,29.98,SSW,212,7.0,11.0,91,0.00,,---,0.00,VWS V14.01,2013-04-19 06:58:00,
2013-04-19 03:03:00,66.1,63.4,29.97,SSE,167,4.0,12.0,91,0.00,,---,0.00,VWS V14.01,2013-04-19 07:03:00,
2013-04-19 03:08:00,66.2,63.5,29.97,SSE,161,2.0,12.0,91,0.00,,---,0.00,VWS V14.01,2013-04-19 07:08:00,
2013-04-19 03:13:00,66.2,63.5,29.97,SSE,156,5.0,12.0,91,0.00,,---,0.00,VWS V14.01,2013-04-19 07:13:00,
2013-04-19 03:18:00,66.2,63.5,29.97,SW,226,7.0,7.0,91,0.00,,---,0.00,VWS V14.01,2013-04-19 07:18:00,
2013-04-19 03:23:00,66.2,63.5,29.97,South,180,3.0,8.0,91,0.00,,---,0.00,VWS V14.01,2013-04-19 07:23:00,
2013-04-19 03:28:00,66.2,63.5,29.96,SE,146,4.0,10.0,91,0.00,,---,0.00,VWS V14.01,2013-04-19 07:28:00,
2013-04-19 03:33:00,66.3,63.6,29.96,SE,138,3.0,10.0,91,0.00,,---,0.00,VWS V14.01,2013-04-19 07:33:00,
2013-04-19 03:38:00,66.3,63.6,29.97,South,190,5.0,10.0,91,0.00,,---,0.00,VWS V14.01,2013-04-19 07:38:00,
2013-04-19 03:44:00,66.3,63.6,29.97,SSE,156,3.0,10.0,91,0.00,,---,0.00,VWS V14.01,2013-04-19 07:44:00,
2013-04-19 03:49:00,66.3,63.6,29.97,SE,137,4.0,6.0,91,0.00,,---,0.00,VWS V14.01,2013-04-19 07:49:00,
2013-04-19 03:54:00,66.3,63.6,29.96,South,190,9.0,10.0,91,0.00,,---,0.00,VWS V14.01,2013-04-19 07:54:00,
2013-04-19 03:59:00,66.4,63.7,29.96,SE,131,5.0,10.0,91,0.00,,---,0.00,VWS V14.01,2013-04-19 07:59:00,
2013-04-19 04:04:00,66.4,63.7,29.96,SSE,160,5.0,10.0,91,0.00,,---,0.00,VWS V14.01,2013-04-19 08:04:00,
2013-04-19 04:09:00,66.4,63.7,29.96,South,182,4.0,10.0,91,0.00,,---,0.00,VWS V14.01,2013-04-19 08:09:00,
2013-04-19 04:14:00,66.4,63.7,29.96,SSE,150,4.0,10.0,91,0.00,,---,0.00,VWS V14.01,2013-04-19 08:14:00,
2013-04-19 04:19:00,66.4,63.7,29.96,South,172,2.0,7.0,91,0.00,,---,0.00,VWS V14.01,2013-04-19 08:19:00,
2013-04-19 04:24:00,66.5,63.8,29.96,South,182,5.0,9.0,91,0.00,,---,0.00,VWS V14.01,2013-04-19 08:24:00,
2013-04-19 04:29:00,66.5,63.8,29.96,South,178,2.0,9.0,91,0.00,,---,0.00,VWS V14.01,2013-04-19 08:29:00,
2013-04-19 04:34:00,66.5,63.8,29.95,SW,215,5.0,9.0,91,0.00,,---,0.00,VWS V14.01,2013-04-19 08:34:00,
2013-04-19 04:39:00,66.5,63.5,29.95,SSE,162,3.0,9.0,90,0.00,,---,0.00,VWS V14.01,2013-04-19 08:39:00,
2013-04-19 04:44:00,66.5,63.5,29.95,SW,217,4.0,11.0,90,0.00,,---,0.00,VWS V14.01,2013-04-19 08:44:00,
2013-04-19 04:49:00,66.5,63.5,29.95,SSE,167,5.0,8.0,90,0.00,,---,0.00,VWS V14.01,2013-04-19 08:49:00,
2013-04-19 04:55:00,66.6,63.6,29.95,SSE,165,5.0,8.0,90,0.00,,---,0.00,VWS V14.01,2013-04-19 08:55:00,
2013-04-19 05:00:00,66.6,63.6,29.95,SSE,158,4.0,9.0,90,0.00,,---,0.00,VWS V14.01,2013-04-19 09:00:00,
2013-04-19 05:05:00,66.6,63.6,29.94,South,169,9.0,10.0,90,0.00,,---,0.00,VWS V14.01,2013-04-19 09:05:00,
2013-04-19 05:10:00,66.7,63.7,29.94,SSE,159,2.0,12.0,90,0.00,,---,0.00,VWS V14.01,2013-04-19 09:10:00,
2013-04-19 05:15:00,66.7,63.7,29.94,SSE,155,3.0,12.0,90,0.00,,---,0.00,VWS V14.01,2013-04-19 09:15:00,
2013-04-19 05:20:00,66.7,63.7,29.94,SSE,155,2.0,9.0,90,0.00,,---,0.00,VWS V14.01,2013-04-19 09:20:00,
2013-04-19 05:25:00,66.7,63.7,29.93,SSE,164,3.0,9.0,90,0.00,,---,0.00,VWS V14.01,2013-04-19 09:25:00,
2013-04-19 05:30:00,66.7,63.7,29.94,SSE,155,5.0,10.0,90,0.00,,---,0.00,VWS V14.01,2013-04-19 09:30:00,
2013-04-19 05:35:00,66.8,63.8,29.93,ESE,108,4.0,8.0,90,0.00,,---,0.00,VWS V14.01,2013-04-19 09:35:00,
2013-04-19 05:40:00,66.8,63.8,29.93,SSE,148,2.0,8.0,90,0.00,,---,0.00,VWS V14.01,2013-04-19 09:40:00,
2013-04-19 05:45:00,66.7,63.7,29.93,South,190,3.0,12.0,90,0.00,,---,0.00,VWS V14.01,2013-04-19 09:45:00,
2013-04-19 05:50:00,66.7,63.7,29.93,SSW,194,5.0,7.0,90,0.00,,---,0.00,VWS V14.01,2013-04-19 09:50:00,
2013-04-19 05:55:00,66.6,63.6,29.94,South,173,4.0,8.0,90,0.00,,---,0.00,VWS V14.01,2013-04-19 09:55:00,
2013-04-19 06:00:00,66.5,63.5,29.93,SE,146,2.0,8.0,90,0.00,,---,0.00,VWS V14.01,2013-04-19 10:00:00,
2013-04-19 06:06:00,66.4,63.4,29.94,SSE,147,2.0,8.0,90,0.00,,---,0.00,VWS V14.01,2013-04-19 10:06:00,
2013-04-19 06:11:00,66.4,63.4,29.94,SSW,200,7.0,10.0,90,0.00,,---,0.00,VWS V14.01,2013-04-19 10:11:00,
2013-04-19 06:16:00,66.4,63.4,29.94,South,174,2.0,10.0,90,0.00,,---,0.00,VWS V14.01,2013-04-19 10:16:00,
2013-04-19 06:21:00,66.4,63.4,29.94,South,191,2.0,10.0,90,0.00,,---,0.00,VWS V14.01,2013-04-19 10:21:00,
2013-04-19 06:26:00,66.3,63.3,29.93,SSE,157,6.0,10.0,90,0.00,,---,0.00,VWS V14.01,2013-04-19 10:26:00,
2013-04-19 06:31:00,66.3,63.3,29.94,SSE,160,4.0,7.0,90,0.00,,---,0.00,VWS V14.01,2013-04-19 10:31:00,
2013-04-19 06:36:00,66.4,63.4,29.94,SSW,207,6.0,9.0,90,0.00,,---,0.00,VWS V14.01,2013-04-19 10:36:00,
2013-04-19 06:41:00,66.4,63.4,29.94,South,169,7.0,9.0,90,0.00,,---,0.00,VWS V14.01,2013-04-19 10:41:00,
2013-04-19 06:46:00,66.4,63.4,29.94,South,175,4.0,9.0,90,0.00,,---,0.00,VWS V14.01,2013-04-19 10:46:00,
2013-04-19 06:51:00,66.5,63.8,29.94,SSE,153,4.0,9.0,91,0.00,,---,0.00,VWS V14.01,2013-04-19 10:51:00,
2013-04-19 06:56:00,66.5,63.5,29.94,SSW,207,6.0,10.0,90,0.00,,---,0.00,VWS V14.01,2013-04-19 10:56:00,
2013-04-19 07:01:00,66.7,63.7,29.94,SSE,165,4.0,6.0,90,0.00,,---,0.00,VWS V14.01,2013-04-19 11:01:00,
2013-04-19 07:06:00,66.7,63.7,29.93,South,171,4.0,9.0,90,0.00,,---,0.00,VWS V14.01,2013-04-19 11:06:00,
2013-04-19 07:11:00,66.8,63.8,29.94,South,180,4.0,10.0,90,0.00,,---,0.00,VWS V14.01,2013-04-19 11:11:00,
2013-04-19 07:16:00,66.9,63.9,29.94,SSW,208,4.0,7.0,90,0.00,,---,0.00,VWS V14.01,2013-04-19 11:16:00,
2013-04-19 07:22:00,67.0,64.0,29.94,SSE,168,3.0,9.0,90,0.00,,---,0.00,VWS V14.01,2013-04-19 11:22:00,
2013-04-19 07:27:00,67.1,64.1,29.94,South,178,5.0,9.0,90,0.00,,---,0.00,VWS V14.01,2013-04-19 11:27:00,
2013-04-19 07:32:00,67.2,64.2,29.94,SSW,213,9.0,9.0,90,0.00,,---,0.00,VWS V14.01,2013-04-19 11:32:00,
2013-04-19 07:37:00,67.4,64.4,29.94,South,176,7.0,11.0,90,0.00,,---,0.00,VWS V14.01,2013-04-19 11:37:00,
2013-04-19 07:42:00,67.6,64.2,29.94,SSW,211,3.0,11.0,89,0.00,,---,0.00,VWS V14.01,2013-04-19 11:42:00,
2013-04-19 07:47:00,67.7,64.3,29.94,South,178,10.0,12.0,89,0.00,,---,0.00,VWS V14.01,2013-04-19 11:47:00,
2013-04-19 07:52:00,67.8,64.4,29.94,SSW,192,2.0,12.0,89,0.00,,---,0.00,VWS V14.01,2013-04-19 11:52:00,
2013-04-19 07:57:00,67.8,64.4,29.94,SSW,206,5.0,13.0,89,0.00,,---,0.00,VWS V14.01,2013-04-19 11:57:00,
2013-04-19 08:02:00,68.0,64.6,29.95,SSW,192,7.0,7.0,89,0.00,,---,0.00,VWS V14.01,2013-04-19 12:02:00,
2013-04-19 08:07:00,68.1,64.7,29.95,WSW,238,7.0,12.0,89,0.00,,---,0.00,VWS V14.01,2013-04-19 12:07:00,
2013-04-19 08:12:00,68.2,64.8,29.95,SSE,167,6.0,12.0,89,0.00,,---,0.00,VWS V14.01,2013-04-19 12:12:00,
2013-04-19 08:17:00,68.4,64.7,29.95,South,176,2.0,13.0,88,0.00,,---,0.00,VWS V14.01,2013-04-19 12:17:00,
2013-04-19 08:22:00,68.5,64.8,29.94,SE,145,5.0,13.0,88,0.00,,---,0.00,VWS V14.01,2013-04-19 12:22:00,
2013-04-19 08:27:00,68.6,64.9,29.94,SSE,162,3.0,13.0,88,0.00,,---,0.00,VWS V14.01,2013-04-19 12:27:00,
2013-04-19 08:32:00,68.8,65.1,29.95,SSE,156,5.0,9.0,88,0.00,,---,0.00,VWS V14.01,2013-04-19 12:32:00,
2013-04-19 08:38:00,69.0,65.3,29.94,WSW,245,6.0,9.0,88,0.00,,---,0.00,VWS V14.01,2013-04-19 12:38:00,
2013-04-19 08:43:00,69.0,65.3,29.94,South,179,9.0,12.0,88,0.00,,---,0.00,VWS V14.01,2013-04-19 12:43:00,
2013-04-19 08:48:00,69.1,65.4,29.95,South,182,8.0,12.0,88,0.00,,---,0.00,VWS V14.01,2013-04-19 12:48:00,
2013-04-19 08:53:00,69.2,65.2,29.95,SSE,168,3.0,12.0,87,0.00,,---,0.00,VWS V14.01,2013-04-19 12:53:00,
2013-04-19 08:58:00,69.3,65.3,29.95,South,176,6.0,12.0,87,0.00,,---,0.00,VWS V14.01,2013-04-19 12:58:00,
2013-04-19 09:03:00,69.5,65.8,29.95,SSE,150,3.0,9.0,88,0.00,,---,0.00,VWS V14.01,2013-04-19 13:03:00,
2013-04-19 09:08:00,69.6,65.6,29.94,ESE,122,3.0,11.0,87,0.00,,---,0.00,VWS V14.01,2013-04-19 13:08:00,
2013-04-19 09:13:00,69.8,65.8,29.94,South,191,2.0,11.0,87,0.00,,---,0.00,VWS V14.01,2013-04-19 13:13:00,
2013-04-19 09:18:00,70.2,65.8,29.94,South,180,6.0,10.0,86,0.00,,---,0.00,VWS V14.01,2013-04-19 13:18:00,
2013-04-19 09:23:00,70.5,66.1,29.94,NNE,19,3.0,12.0,86,0.00,,---,0.00,VWS V14.01,2013-04-19 13:23:00,
2013-04-19 09:28:00,70.8,66.4,29.94,SSW,209,2.0,12.0,86,0.00,,---,0.00,VWS V14.01,2013-04-19 13:28:00,
2013-04-19 09:33:00,71.1,66.4,29.95,SW,224,3.0,11.0,85,0.00,,---,0.00,VWS V14.01,2013-04-19 13:33:00,
2013-04-19 09:38:00,71.2,66.5,29.94,SSW,209,4.0,11.0,85,0.00,,---,0.00,VWS V14.01,2013-04-19 13:38:00,
2013-04-19 09:44:00,71.2,66.1,29.94,SW,219,4.0,11.0,84,0.00,,---,0.00,VWS V14.01,2013-04-19 13:44:00,
2013-04-19 09:49:00,71.1,66.0,29.94,SSE,160,7.0,11.0,84,0.00,,---,0.00,VWS V14.01,2013-04-19 13:49:00,
2013-04-19 09:54:00,71.1,66.0,29.93,SSE,147,3.0,12.0,84,0.00,,---,0.00,VWS V14.01,2013-04-19 13:54:00,
2013-04-19 09:59:00,71.5,66.4,29.93,SSW,209,7.0,13.0,84,0.00,,---,0.00,VWS V14.01,2013-04-19 13:59:00,
2013-04-19 10:04:00,71.7,66.3,29.93,SSE,148,4.0,15.0,83,0.00,,---,0.00,VWS V14.01,2013-04-19 14:04:00,
2013-04-19 10:09:00,71.8,66.7,29.93,South,171,4.0,15.0,84,0.00,,---,0.00,VWS V14.01,2013-04-19 14:09:00,
2013-04-19 10:14:00,71.9,66.5,29.92,SSE,160,3.0,15.0,83,0.00,,---,0.00,VWS V14.01,2013-04-19 14:14:00,
2013-04-19 10:19:00,72.2,67.1,29.92,SSW,194,6.0,8.0,84,0.00,,---,0.00,VWS V14.01,2013-04-19 14:19:00,
2013-04-19 10:24:00,72.1,66.7,29.92,SSE,155,5.0,14.0,83,0.00,,---,0.00,VWS V14.01,2013-04-19 14:24:00,
2013-04-19 10:30:00,72.2,66.8,29.92,SSW,196,5.0,14.0,83,0.00,,---,0.00,VWS V14.01,2013-04-19 14:30:00,
2013-04-19 10:35:00,72.1,66.7,29.92,SSE,161,6.0,12.0,83,0.00,,---,0.00,VWS V14.01,2013-04-19 14:35:00,
2013-04-19 10:40:00,72.3,66.8,29.92,SSE,162,1.0,12.0,83,0.00,,---,0.00,VWS V14.01,2013-04-19 14:40:00,
2013-04-19 10:45:00,72.4,66.6,29.92,SSE,161,4.0,12.0,82,0.00,,---,0.00,VWS V14.01,2013-04-19 14:45:00,
2013-04-19 10:50:00,72.6,66.8,29.92,South,190,6.0,10.0,82,0.00,,---,0.00,VWS V14.01,2013-04-19 14:50:00,
2013-04-19 10:55:00,72.9,67.1,29.92,SSW,203,2.0,10.0,82,0.00,,---,0.00,VWS V14.01,2013-04-19 14:55:00,
2013-04-19 11:00:00,73.1,66.9,29.91,SE,144,8.0,11.0,81,0.00,,---,0.00,VWS V14.01,2013-04-19 15:00:00,
2013-04-19 11:05:00,73.3,67.1,29.91,South,178,5.0,10.0,81,0.00,,---,0.00,VWS V14.01,2013-04-19 15:05:00,
2013-04-19 11:10:00,73.6,67.4,29.91,SSE,163,6.0,10.0,81,0.00,,---,0.00,VWS V14.01,2013-04-19 15:10:00,
2013-04-19 11:15:00,73.9,67.3,29.90,SE,145,6.0,15.0,80,0.00,,---,0.00,VWS V14.01,2013-04-19 15:15:00,
2013-04-19 11:20:00,74.1,67.2,29.90,WSW,242,8.0,12.0,79,0.00,,---,0.00,VWS V14.01,2013-04-19 15:20:00,
2013-04-19 11:25:00,74.2,67.3,29.90,South,188,4.0,14.0,79,0.00,,---,0.00,VWS V14.01,2013-04-19 15:25:00,
2013-04-19 11:30:00,74.9,67.6,29.89,SW,224,8.0,14.0,78,0.00,,---,0.00,VWS V14.01,2013-04-19 15:30:00,
2013-04-19 11:35:00,75.4,67.7,29.89,SW,233,6.0,13.0,77,0.00,,---,0.00,VWS V14.01,2013-04-19 15:35:00,
2013-04-19 11:41:00,75.2,67.5,29.89,South,174,6.0,15.0,77,0.00,,---,0.00,VWS V14.01,2013-04-19 15:41:00,
2013-04-19 11:46:00,75.4,68.1,29.89,SSE,155,5.0,15.0,78,0.00,,---,0.00,VWS V14.01,2013-04-19 15:46:00,
2013-04-19 11:51:00,75.6,67.9,29.89,South,169,3.0,13.0,77,0.00,,---,0.00,VWS V14.01,2013-04-19 15:51:00,
2013-04-19 11:56:00,75.6,67.9,29.88,SW,216,3.0,15.0,77,0.00,,---,0.00,VWS V14.01,2013-04-19 15:56:00,
2013-04-19 12:01:00,76.1,68.0,29.88,SSE,162,7.0,9.0,76,0.00,,---,0.00,VWS V14.01,2013-04-19 16:01:00,
2013-04-19 12:06:00,76.0,67.5,29.88,South,178,4.0,12.0,75,0.00,,---,0.00,VWS V14.01,2013-04-19 16:06:00,
2013-04-19 12:11:00,75.8,67.7,29.88,SE,133,2.0,12.0,76,0.00,,---,0.00,VWS V14.01,2013-04-19 16:11:00,
2013-04-19 12:16:00,75.6,67.5,29.87,SE,128,4.0,5.0,76,0.00,,---,0.00,VWS V14.01,2013-04-19 16:16:00,
2013-04-19 12:21:00,76.2,68.1,29.85,SW,216,9.0,16.0,76,0.00,,---,0.00,VWS V14.01,2013-04-19 16:21:00,
2013-04-19 12:26:00,76.9,68.4,29.86,West,269,6.0,16.0,75,0.00,,---,0.00,VWS V14.01,2013-04-19 16:26:00,
2013-04-19 12:31:00,77.3,68.8,29.86,SSW,199,4.0,7.0,75,0.00,,---,0.00,VWS V14.01,2013-04-19 16:31:00,
2013-04-19 12:36:00,77.9,68.6,29.85,SSE,152,5.0,11.0,73,0.00,,---,0.00,VWS V14.01,2013-04-19 16:36:00,
2013-04-19 12:41:00,78.7,68.9,29.85,SSW,203,5.0,17.0,72,0.00,,---,0.00,VWS V14.01,2013-04-19 16:41:00,
2013-04-19 12:46:00,78.9,68.3,29.85,South,170,7.0,15.0,70,0.00,,---,0.00,VWS V14.01,2013-04-19 16:46:00,
2013-04-19 12:51:00,78.9,68.3,29.85,SW,214,9.0,16.0,70,0.00,,---,0.00,VWS V14.01,2013-04-19 16:51:00,
2013-04-19 12:57:00,78.6,68.0,29.85,SSE,158,8.0,16.0,70,0.00,,---,0.00,VWS V14.01,2013-04-19 16:57:00,
2013-04-19 13:02:00,78.7,68.1,29.84,SSE,167,5.0,8.0,70,0.00,,---,0.00,VWS V14.01,2013-04-19 17:02:00,
2013-04-19 13:07:00,78.6,67.2,29.84,South,182,6.0,18.0,68,0.00,,---,0.00,VWS V14.01,2013-04-19 17:07:00,
2013-04-19 13:12:00,78.5,67.1,29.83,SSE,148,4.0,18.0,68,0.00,,---,0.00,VWS V14.01,2013-04-19 17:12:00,
2013-04-19 13:17:00,78.7,66.8,29.83,South,190,8.0,17.0,67,0.00,,---,0.00,VWS V14.01,2013-04-19 17:17:00,
2013-04-19 13:22:00,78.9,67.4,29.83,South,176,4.0,17.0,68,0.00,,---,0.00,VWS V14.01,2013-04-19 17:22:00,
2013-04-19 13:27:00,79.3,67.8,29.82,South,183,3.0,17.0,68,0.00,,---,0.00,VWS V14.01,2013-04-19 17:27:00,
2013-04-19 13:32:00,79.5,67.6,29.82,South,171,7.0,12.0,67,0.00,,---,0.00,VWS V14.01,2013-04-19 17:32:00,
2013-04-19 13:37:00,79.7,67.8,29.82,SW,217,10.0,17.0,67,0.00,,---,0.00,VWS V14.01,2013-04-19 17:37:00,
2013-04-19 13:42:00,79.4,67.5,29.82,SW,223,8.0,18.0,67,0.00,,---,0.00,VWS V14.01,2013-04-19 17:42:00,
2013-04-19 13:47:00,79.2,67.3,29.82,SSE,159,7.0,19.0,67,0.00,,---,0.00,VWS V14.01,2013-04-19 17:47:00,
2013-04-19 13:52:00,79.2,67.7,29.81,SSW,198,9.0,19.0,68,0.00,,---,0.00,VWS V14.01,2013-04-19 17:52:00,
2013-04-19 13:57:00,79.3,67.4,29.82,South,173,14.0,21.0,67,0.00,,---,0.00,VWS V14.01,2013-04-19 17:57:00,
2013-04-19 14:02:00,79.3,67.4,29.82,NE,38,3.0,13.0,67,0.00,,---,0.00,VWS V14.01,2013-04-19 18:02:00,
2013-04-19 14:07:00,79.4,67.5,29.82,West,281,5.0,13.0,67,0.00,,---,0.00,VWS V14.01,2013-04-19 18:07:00,
2013-04-19 14:13:00,79.6,67.2,29.81,SW,225,10.0,24.0,66,0.00,,---,0.00,VWS V14.01,2013-04-19 18:13:00,
2013-04-19 14:18:00,80.0,67.6,29.81,SSE,168,6.0,12.0,66,0.00,,---,0.00,VWS V14.01,2013-04-19 18:18:00,
2013-04-19 14:23:00,78.5,68.3,29.82,WSW,238,9.0,15.0,71,0.00,,---,0.00,VWS V14.01,2013-04-19 18:23:00,
2013-04-19 14:28:00,78.2,69.2,29.82,South,186,3.0,15.0,74,0.01,,---,0.01,VWS V14.01,2013-04-19 18:28:00,
2013-04-19 14:33:00,79.4,68.8,29.82,SSW,200,7.0,13.0,70,0.01,,---,0.01,VWS V14.01,2013-04-19 18:33:00,
2013-04-19 14:38:00,80.3,69.2,29.81,South,170,6.0,14.0,69,0.01,,---,0.01,VWS V14.01,2013-04-19 18:38:00,
2013-04-19 14:43:00,80.0,68.5,29.81,SSE,167,4.0,22.0,68,0.01,,---,0.01,VWS V14.01,2013-04-19 18:43:00,
2013-04-19 14:48:00,79.7,67.8,29.81,South,173,8.0,12.0,67,0.01,,---,0.01,VWS V14.01,2013-04-19 18:48:00,
2013-04-19 14:53:00,79.3,67.0,29.81,South,169,6.0,15.0,66,0.01,,---,0.01,VWS V14.01,2013-04-19 18:53:00,
2013-04-19 14:58:00,79.5,67.6,29.81,SSW,209,4.0,15.0,67,0.01,,---,0.01,VWS V14.01,2013-04-19 18:58:00,
2013-04-19 15:03:00,80.1,67.7,29.81,SE,142,4.0,17.0,66,0.01,,---,0.01,VWS V14.01,2013-04-19 19:03:00,
2013-04-19 15:08:00,80.1,67.3,29.81,SE,131,4.0,17.0,65,0.01,,---,0.01,VWS V14.01,2013-04-19 19:08:00,
2013-04-19 15:13:00,80.0,67.2,29.80,SE,145,5.0,17.0,65,0.01,,---,0.01,VWS V14.01,2013-04-19 19:13:00,
2013-04-19 15:18:00,79.4,66.6,29.80,South,184,7.0,14.0,65,0.01,,---,0.01,VWS V14.01,2013-04-19 19:18:00,
2013-04-19 15:24:00,79.0,66.2,29.80,NE,53,3.0,14.0,65,0.01,,---,0.01,VWS V14.01,2013-04-19 19:24:00,
2013-04-19 15:29:00,79.0,66.2,29.80,SE,144,6.0,15.0,65,0.01,,---,0.01,VWS V14.01,2013-04-19 19:29:00,
2013-04-19 15:34:00,79.0,66.2,29.80,SSW,202,3.0,13.0,65,0.00,,---,0.01,VWS V14.01,2013-04-19 19:34:00,
2013-04-19 15:39:00,79.0,66.2,29.80,South,188,3.0,17.0,65,0.00,,---,0.01,VWS V14.01,2013-04-19 19:39:00,
2013-04-19 15:44:00,78.9,66.2,29.80,SSE,163,0.0,17.0,65,0.00,,---,0.01,VWS V14.01,2013-04-19 19:44:00,
2013-04-19 15:49:00,78.7,66.0,29.80,South,179,5.0,12.0,65,0.00,,---,0.01,VWS V14.01,2013-04-19 19:49:00,
2013-04-19 15:54:00,78.5,65.3,29.80,South,186,9.0,17.0,64,0.00,,---,0.01,VWS V14.01,2013-04-19 19:54:00,
2013-04-19 15:59:00,78.4,65.7,29.80,SW,216,5.0,17.0,65,0.00,,---,0.01,VWS V14.01,2013-04-19 19:59:00,
2013-04-19 16:04:00,78.2,65.5,29.80,WNW,291,4.0,11.0,65,0.00,,---,0.01,VWS V14.01,2013-04-19 20:04:00,
2013-04-19 16:09:00,77.8,66.8,29.81,WNW,284,11.0,14.0,69,0.02,,---,0.03,VWS V14.01,2013-04-19 20:09:00,
2013-04-19 16:14:00,73.3,64.9,29.80,South,171,8.0,16.0,75,0.15,,---,0.16,VWS V14.01,2013-04-19 20:14:00,
2013-04-19 16:19:00,70.5,64.8,29.79,SW,226,2.0,8.0,82,0.16,,---,0.17,VWS V14.01,2013-04-19 20:19:00,
2013-04-19 16:24:00,69.8,65.1,29.79,WSW,248,0.0,8.0,85,0.16,,---,0.17,VWS V14.01,2013-04-19 20:24:00,
2013-04-19 16:30:00,69.7,65.7,29.79,South,171,0.0,8.0,87,0.16,,---,0.17,VWS V14.01,2013-04-19 20:30:00,
2013-04-19 16:35:00,69.8,66.1,29.79,SSW,205,3.0,5.0,88,0.16,,---,0.17,VWS V14.01,2013-04-19 20:35:00,
2013-04-19 16:40:00,69.9,66.2,29.80,SSW,210,0.0,7.0,88,0.16,,---,0.17,VWS V14.01,2013-04-19 20:40:00,
2013-04-19 16:45:00,69.9,66.5,29.80,SSW,210,2.0,7.0,89,0.16,,---,0.17,VWS V14.01,2013-04-19 20:45:00,
2013-04-19 16:50:00,70.0,66.6,29.81,SSW,212,0.0,4.0,89,0.16,,---,0.17,VWS V14.01,2013-04-19 20:50:00,
2013-04-19 16:55:00,70.0,66.9,29.82,SW,232,4.0,7.0,90,0.16,,---,0.17,VWS V14.01,2013-04-19 20:55:00,
2013-04-19 17:00:00,69.9,67.2,29.81,SSW,207,4.0,13.0,91,0.17,,---,0.18,VWS V14.01,2013-04-19 21:00:00,
2013-04-19 17:05:00,69.9,67.2,29.84,West,266,4.0,10.0,91,0.18,,---,0.19,VWS V14.01,2013-04-19 21:05:00,
2013-04-19 17:11:00,68.8,65.4,29.85,WSW,258,13.0,19.0,89,0.34,,---,0.35,VWS V14.01,2013-04-19 21:11:00,
2013-04-19 17:16:00,67.0,63.7,29.84,WNW,299,4.0,13.0,89,0.21,,---,0.38,VWS V14.01,2013-04-19 21:16:00,
2013-04-19 17:21:00,66.3,63.6,29.83,WNW,285,9.0,16.0,91,0.21,,---,0.38,VWS V14.01,2013-04-19 21:21:00,
2013-04-19 17:26:00,66.1,63.7,29.83,South,173,7.0,16.0,92,0.21,,---,0.38,VWS V14.01,2013-04-19 21:26:00,
2013-04-19 17:31:00,66.2,63.8,29.83,South,190,4.0,4.0,92,0.21,,---,0.38,VWS V14.01,2013-04-19 21:31:00,
2013-04-19 17:36:00,66.2,63.8,29.83,SSW,206,4.0,13.0,92,0.21,,---,0.38,VWS V14.01,2013-04-19 21:36:00,
2013-04-19 17:42:00,66.3,63.9,29.83,NNW,338,3.0,13.0,92,0.21,,---,0.38,VWS V14.01,2013-04-19 21:42:00,
2013-04-19 17:47:00,66.4,64.0,29.82,WSW,244,4.0,4.0,92,0.21,,---,0.38,VWS V14.01,2013-04-19 21:47:00,
2013-04-19 17:52:00,66.4,64.3,29.82,NNE,15,2.0,9.0,93,0.21,,---,0.38,VWS V14.01,2013-04-19 21:52:00,
2013-04-19 17:57:00,66.5,64.1,29.81,WSW,249,1.0,14.0,92,0.21,,---,0.38,VWS V14.01,2013-04-19 21:57:00,
2013-04-19 18:02:00,66.6,64.5,29.80,SW,225,0.0,7.0,93,0.20,,---,0.38,VWS V14.01,2013-04-19 22:02:00,
2013-04-19 18:07:00,66.9,64.5,29.81,SSW,198,3.0,7.0,92,0.20,,---,0.38,VWS V14.01,2013-04-19 22:07:00,
2013-04-19 18:12:00,66.9,64.5,29.81,SSW,198,0.0,9.0,92,0.20,,---,0.38,VWS V14.01,2013-04-19 22:12:00,
2013-04-19 18:17:00,66.8,64.4,29.81,SSW,205,3.0,4.0,92,0.00,,---,0.38,VWS V14.01,2013-04-19 22:17:00,
2013-04-19 18:22:00,66.8,64.1,29.82,WSW,245,5.0,11.0,91,0.00,,---,0.38,VWS V14.01,2013-04-19 22:22:00,
2013-04-19 18:27:00,66.7,64.0,29.82,SW,227,1.0,11.0,91,0.01,,---,0.39,VWS V14.01,2013-04-19 22:27:00,
2013-04-19 18:32:00,66.6,64.2,29.81,NW,318,2.0,4.0,92,0.01,,---,0.39,VWS V14.01,2013-04-19 22:32:00,
2013-04-19 18:37:00,66.4,63.7,29.82,South,188,5.0,7.0,91,0.01,,---,0.39,VWS V14.01,2013-04-19 22:37:00,
2013-04-19 18:43:00,66.3,63.9,29.81,West,273,1.0,11.0,92,0.01,,---,0.39,VWS V14.01,2013-04-19 22:43:00,
2013-04-19 18:48:00,66.2,63.8,29.81,WNW,282,2.0,6.0,92,0.01,,---,0.39,VWS V14.01,2013-04-19 22:48:00,
2013-04-19 18:53:00,66.1,63.7,29.81,SSE,157,1.0,6.0,92,0.01,,---,0.39,VWS V14.01,2013-04-19 22:53:00,
2013-04-19 18:58:00,66.1,64.0,29.81,SSW,194,2.0,6.0,93,0.01,,---,0.39,VWS V14.01,2013-04-19 22:58:00,
2013-04-19 19:03:00,66.0,63.9,29.81,SSW,211,2.0,3.0,93,0.01,,---,0.39,VWS V14.01,2013-04-19 23:03:00,
2013-04-19 19:08:00,65.9,63.8,29.81,NW,317,5.0,6.0,93,0.01,,---,0.39,VWS V14.01,2013-04-19 23:08:00,
2013-04-19 19:13:00,65.9,63.8,29.82,ENE,59,1.0,10.0,93,0.01,,---,0.39,VWS V14.01,2013-04-19 23:13:00,
2013-04-19 19:18:00,66.0,63.9,29.82,SW,221,1.0,15.0,93,0.01,,---,0.39,VWS V14.01,2013-04-19 23:18:00,
2013-04-19 19:23:00,66.0,63.9,29.82,West,265,3.0,15.0,93,0.01,,---,0.39,VWS V14.01,2013-04-19 23:23:00,
2013-04-19 19:29:00,66.0,63.9,29.82,NW,324,2.0,15.0,93,0.01,,---,0.39,VWS V14.01,2013-04-19 23:29:00,
2013-04-19 19:34:00,66.0,64.2,29.84,WSW,240,0.0,6.0,94,0.00,,---,0.39,VWS V14.01,2013-04-19 23:34:00,
2013-04-19 19:39:00,66.0,64.2,29.84,SE,144,3.0,6.0,94,0.00,,---,0.39,VWS V14.01,2013-04-19 23:39:00,
2013-04-19 19:44:00,66.1,64.0,29.84,West,263,6.0,12.0,93,0.00,,---,0.39,VWS V14.01,2013-04-19 23:44:00,
2013-04-19 19:49:00,66.1,64.0,29.84,SW,227,5.0,13.0,93,0.00,,---,0.39,VWS V14.01,2013-04-19 23:49:00,
2013-04-19 19:54:00,66.1,64.0,29.84,SW,235,2.0,13.0,93,0.00,,---,0.39,VWS V14.01,2013-04-19 23:54:00,
2013-04-19 19:59:00,66.0,63.6,29.85,SW,230,3.0,13.0,92,0.00,,---,0.39,VWS V14.01,2013-04-19 23:59:00,
2013-04-19 20:04:00,65.8,63.4,29.84,South,177,2.0,9.0,92,0.01,,---,0.40,VWS V14.01,2013-04-20 00:04:00,
2013-04-19 20:09:00,65.7,63.3,29.84,SW,221,4.0,11.0,92,0.01,,---,0.40,VWS V14.01,2013-04-20 00:09:00,
2013-04-19 20:14:00,65.6,63.2,29.84,SSW,200,0.0,11.0,92,0.02,,---,0.41,VWS V14.01,2013-04-20 00:14:00,
2013-04-19 20:19:00,65.3,62.9,29.85,South,187,8.0,9.0,92,0.02,,---,0.41,VWS V14.01,2013-04-20 00:19:00,
2013-04-19 20:24:00,65.1,62.7,29.85,SW,223,3.0,9.0,92,0.02,,---,0.41,VWS V14.01,2013-04-20 00:24:00,
2013-04-19 20:29:00,64.9,62.2,29.85,SSW,206,8.0,10.0,91,0.03,,---,0.42,VWS V14.01,2013-04-20 00:29:00,
2013-04-19 20:35:00,64.5,60.9,29.85,SSW,193,2.0,9.0,88,0.03,,---,0.42,VWS V14.01,2013-04-20 00:35:00,
2013-04-19 20:40:00,64.0,59.7,29.84,SSW,196,10.0,11.0,86,0.04,,---,0.43,VWS V14.01,2013-04-20 00:40:00,
2013-04-19 20:45:00,63.5,59.6,29.84,SSW,213,4.0,11.0,87,0.04,,---,0.43,VWS V14.01,2013-04-20 00:45:00,
2013-04-19 20:50:00,63.1,59.8,29.85,WSW,238,4.0,8.0,89,0.05,,---,0.44,VWS V14.01,2013-04-20 00:50:00,
2013-04-19 20:55:00,62.7,59.7,29.86,East,86,2.0,8.0,90,0.06,,---,0.45,VWS V14.01,2013-04-20 00:55:00,
2013-04-19 21:00:00,62.4,60.0,29.86,South,188,3.0,8.0,92,0.06,,---,0.45,VWS V14.01,2013-04-20 01:00:00,
2013-04-19 21:05:00,62.1,59.8,29.87,NW,321,3.0,6.0,92,0.05,,---,0.45,VWS V14.01,2013-04-20 01:05:00,
2013-04-19 21:10:00,61.8,58.8,29.86,WSW,248,0.0,8.0,90,0.06,,---,0.46,VWS V14.01,2013-04-20 01:10:00,
2013-04-19 21:15:00,61.6,58.3,29.86,SSW,193,3.0,10.0,89,0.06,,---,0.46,VWS V14.01,2013-04-20 01:15:00,
2013-04-19 21:20:00,61.2,56.3,29.85,West,263,5.0,10.0,84,0.05,,---,0.46,VWS V14.01,2013-04-20 01:20:00,
2013-04-19 21:25:00,60.7,54.8,29.85,South,182,3.0,11.0,81,0.05,,---,0.46,VWS V14.01,2013-04-20 01:25:00,
2013-04-19 21:30:00,60.2,54.0,29.85,SSW,211,4.0,11.0,80,0.05,,---,0.46,VWS V14.01,2013-04-20 01:30:00,
2013-04-19 21:35:00,59.8,54.0,29.86,South,180,3.0,7.0,81,0.05,,---,0.47,VWS V14.01,2013-04-20 01:35:00,
2013-04-19 21:40:00,59.3,54.2,29.86,SSE,150,1.0,7.0,83,0.05,,---,0.47,VWS V14.01,2013-04-20 01:40:00,
2013-04-19 21:46:00,59.0,54.2,29.86,South,190,4.0,8.0,84,0.05,,---,0.47,VWS V14.01,2013-04-20 01:46:00,
2013-04-19 21:51:00,58.8,54.3,29.87,SSW,198,3.0,10.0,85,0.03,,---,0.47,VWS V14.01,2013-04-20 01:51:00,
2013-04-19 21:56:00,58.8,53.7,29.88,SW,215,3.0,10.0,83,0.03,,---,0.47,VWS V14.01,2013-04-20 01:56:00,
2013-04-19 22:01:00,58.7,53.2,29.88,South,172,5.0,5.0,82,0.02,,---,0.47,VWS V14.01,2013-04-20 02:01:00,
2013-04-19 22:06:00,58.4,53.3,29.88,SSE,161,3.0,9.0,83,0.02,,---,0.47,VWS V14.01,2013-04-20 02:06:00,
2013-04-19 22:11:00,58.2,53.1,29.88,NNE,21,0.0,9.0,83,0.02,,---,0.47,VWS V14.01,2013-04-20 02:11:00,
2013-04-19 22:16:00,58.0,52.2,29.88,SSW,200,6.0,6.0,81,0.01,,---,0.47,VWS V14.01,2013-04-20 02:16:00,
2013-04-19 22:21:00,57.8,52.3,29.88,SW,224,1.0,6.0,82,0.01,,---,0.47,VWS V14.01,2013-04-20 02:21:00,
2013-04-19 22:26:00,57.6,52.5,29.89,SSW,199,2.0,6.0,83,0.01,,---,0.47,VWS V14.01,2013-04-20 02:26:00,
2013-04-19 22:31:00,57.4,52.6,29.89,WSW,258,0.0,2.0,84,0.01,,---,0.47,VWS V14.01,2013-04-20 02:31:00,
2013-04-19 22:36:00,57.2,52.4,29.90,WSW,250,3.0,6.0,84,0.01,,---,0.47,VWS V14.01,2013-04-20 02:36:00,
2013-04-19 22:41:00,57.1,52.3,29.90,WSW,253,5.0,7.0,84,0.01,,---,0.47,VWS V14.01,2013-04-20 02:41:00,
2013-04-19 22:46:00,57.0,52.2,29.90,SSE,168,0.0,6.0,84,0.00,,---,0.47,VWS V14.01,2013-04-20 02:46:00,
2013-04-19 22:51:00,57.0,51.9,29.90,SSE,167,7.0,9.0,83,0.00,,---,0.47,VWS V14.01,2013-04-20 02:51:00,
2013-04-19 22:57:00,57.0,51.2,29.90,WNW,303,3.0,12.0,81,0.00,,---,0.47,VWS V14.01,2013-04-20 02:57:00,
2013-04-19 23:02:00,56.7,50.6,29.91,SSE,147,2.0,6.0,80,0.00,,---,0.47,VWS V14.01,2013-04-20 03:02:00,
2013-04-19 23:07:00,56.5,50.1,29.92,SSW,211,3.0,9.0,79,0.00,,---,0.47,VWS V14.01,2013-04-20 03:07:00,
2013-04-19 23:12:00,56.2,50.1,29.92,WSW,246,9.0,11.0,80,0.00,,---,0.47,VWS V14.01,2013-04-20 03:12:00,
2013-04-19 23:17:00,55.9,50.5,29.92,SW,228,4.0,5.0,82,0.00,,---,0.47,VWS V14.01,2013-04-20 03:17:00,
2013-04-19 23:22:00,55.8,51.0,29.92,NNE,27,1.0,16.0,84,0.00,,---,0.47,VWS V14.01,2013-04-20 03:22:00,
2013-04-19 23:27:00,55.6,51.5,29.93,NW,315,5.0,16.0,86,0.00,,---,0.47,VWS V14.01,2013-04-20 03:27:00,
2013-04-19 23:32:00,55.4,51.6,29.93,West,264,0.0,5.0,87,0.00,,---,0.47,VWS V14.01,2013-04-20 03:32:00,
2013-04-19 23:37:00,55.3,51.8,29.93,WNW,290,1.0,9.0,88,0.00,,---,0.47,VWS V14.01,2013-04-20 03:37:00,
2013-04-19 23:42:00,55.2,51.7,29.92,NW,306,2.0,10.0,88,0.00,,---,0.47,VWS V14.01,2013-04-20 03:42:00,
2013-04-19 23:47:00,55.0,51.5,29.93,WSW,250,5.0,12.0,88,0.00,,---,0.47,VWS V14.01,2013-04-20 03:47:00,
2013-04-19 23:52:00,54.9,51.4,29.94,WNW,296,3.0,12.0,88,0.00,,---,0.47,VWS V14.01,2013-04-20 03:52:00,
2013-04-19 23:57:00,54.8,51.3,29.94,West,269,3.0,12.0,88,0.00,,---,0.47,VWS V14.01,2013-04-20 03:57:00,